sensor_id;sensor_type;location;lat;lon;timestamp;pressure;altitude;pressure_sealevel;temperature;humidity
28354;BME280;15603;50.878;8.036;2023-05-21T00:01:43;146135.94;;;12.14;100.00
28354;BME280;15603;50.878;8.036;2023-05-21T00:04:11;146123.75;;;12.09;100.00
28354;BME280;15603;50.878;8.036;2023-05-21T00:06:39;146148.06;;;12.20;100.00
28354;BME280;15603;50.878;8.036;2023-05-21T00:09:06;146137.13;;;12.15;100.00
28354;BME280;15603;50.878;8.036;2023-05-21T00:11:33;146133.47;;;12.13;100.00
28354;BME280;15603;50.878;8.036;2023-05-21T00:14:00;146131.03;;;12.12;100.00
28354;BME280;15603;50.878;8.036;2023-05-21T00:16:27;146126.16;;;12.10;100.00
28354;BME280;15603;50.878;8.036;2023-05-21T00:18:55;146132.28;;;12.13;100.00
28354;BME280;15603;50.878;8.036;2023-05-21T00:21:23;146115.22;;;12.06;100.00
28354;BME280;15603;50.878;8.036;2023-05-21T00:23:52;146095.78;;;11.97;100.00
28354;BME280;15603;50.878;8.036;2023-05-21T00:26:20;146073.81;;;11.88;100.00
28354;BME280;15603;50.878;8.036;2023-05-21T00:28:48;146127.41;;;12.11;100.00
28354;BME280;15603;50.878;8.036;2023-05-21T00:31:16;146023.94;;;11.67;100.00
28354;BME280;15603;50.878;8.036;2023-05-21T00:33:43;146049.50;;;11.78;100.00
28354;BME280;15603;50.878;8.036;2023-05-21T00:36:10;146104.31;;;12.01;100.00
28354;BME280;15603;50.878;8.036;2023-05-21T00:38:41;146166.31;;;12.27;100.00
28354;BME280;15603;50.878;8.036;2023-05-21T00:41:12;146208.94;;;12.45;100.00
28354;BME280;15603;50.878;8.036;2023-05-21T00:43:40;146167.53;;;12.28;100.00
28354;BME280;15603;50.878;8.036;2023-05-21T00:46:14;146129.81;;;12.12;100.00
28354;BME280;15603;50.878;8.036;2023-05-21T00:48:44;146098.19;;;11.98;100.00
28354;BME280;15603;50.878;8.036;2023-05-21T00:51:13;146093.31;;;11.96;100.00
28354;BME280;15603;50.878;8.036;2023-05-21T00:53:41;146020.28;;;11.66;100.00
28354;BME280;15603;50.878;8.036;2023-05-21T00:56:09;146082.38;;;11.92;100.00
28354;BME280;15603;50.878;8.036;2023-05-21T00:58:37;146078.72;;;11.90;100.00
28354;BME280;15603;50.878;8.036;2023-05-21T01:01:05;146075.03;;;11.89;100.00
28354;BME280;15603;50.878;8.036;2023-05-21T01:03:34;146072.63;;;11.88;100.00
28354;BME280;15603;50.878;8.036;2023-05-21T01:06:06;146064.09;;;11.84;100.00
28354;BME280;15603;50.878;8.036;2023-05-21T01:08:34;146064.09;;;11.84;100.00
28354;BME280;15603;50.878;8.036;2023-05-21T01:11:04;145988.66;;;11.52;100.00
28354;BME280;15603;50.878;8.036;2023-05-21T01:13:33;146079.94;;;11.91;100.00
28354;BME280;15603;50.878;8.036;2023-05-21T01:16:03;146090.91;;;11.95;100.00
28354;BME280;15603;50.878;8.036;2023-05-21T01:18:33;146078.72;;;11.90;100.00
28354;BME280;15603;50.878;8.036;2023-05-21T01:21:06;146078.72;;;11.90;100.00
28354;BME280;15603;50.878;8.036;2023-05-21T01:23:33;146076.28;;;11.89;100.00
28354;BME280;15603;50.878;8.036;2023-05-21T01:26:00;146071.38;;;11.87;100.00
28354;BME280;15603;50.878;8.036;2023-05-21T01:28:28;146073.81;;;11.88;100.00
28354;BME280;15603;50.878;8.036;2023-05-21T01:31:01;146037.31;;;11.73;100.00
28354;BME280;15603;50.878;8.036;2023-05-21T01:33:37;146049.50;;;11.78;100.00
28354;BME280;15603;50.878;8.036;2023-05-21T01:36:12;146082.38;;;11.92;100.00
28354;BME280;15603;50.878;8.036;2023-05-21T01:38:47;146065.31;;;11.85;100.00
28354;BME280;15603;50.878;8.036;2023-05-21T01:41:17;146005.69;;;11.59;100.00
28354;BME280;15603;50.878;8.036;2023-05-21T01:43:45;146061.63;;;11.83;100.00
28354;BME280;15603;50.878;8.036;2023-05-21T01:46:16;146073.81;;;11.88;100.00
28354;BME280;15603;50.878;8.036;2023-05-21T01:48:44;146059.22;;;11.82;100.00
28354;BME280;15603;50.878;8.036;2023-05-21T01:51:12;146064.09;;;11.84;100.00
28354;BME280;15603;50.878;8.036;2023-05-21T01:53:40;146077.53;;;11.90;100.00
28354;BME280;15603;50.878;8.036;2023-05-21T01:56:08;146081.19;;;11.91;100.00
28354;BME280;15603;50.878;8.036;2023-05-21T01:58:35;146072.63;;;11.88;100.00
28354;BME280;15603;50.878;8.036;2023-05-21T02:01:02;146079.94;;;11.91;100.00
28354;BME280;15603;50.878;8.036;2023-05-21T02:03:30;146114.03;;;12.05;100.00
28354;BME280;15603;50.878;8.036;2023-05-21T02:05:58;146095.78;;;11.97;100.00
28354;BME280;15603;50.878;8.036;2023-05-21T02:08:25;146083.59;;;11.92;100.00
28354;BME280;15603;50.878;8.036;2023-05-21T02:10:54;146076.28;;;11.89;100.00
28354;BME280;15603;50.878;8.036;2023-05-21T02:13:21;146082.38;;;11.92;100.00
28354;BME280;15603;50.878;8.036;2023-05-21T02:15:52;146084.81;;;11.93;100.00
28354;BME280;15603;50.878;8.036;2023-05-21T02:18:20;146090.91;;;11.95;100.00
28354;BME280;15603;50.878;8.036;2023-05-21T02:20:48;146092.13;;;11.96;100.00
28354;BME280;15603;50.878;8.036;2023-05-21T02:23:16;146120.09;;;12.08;100.00
28354;BME280;15603;50.878;8.036;2023-05-21T02:25:43;146100.63;;;12.00;100.00
28354;BME280;15603;50.878;8.036;2023-05-21T02:28:10;146090.91;;;11.95;100.00
28354;BME280;15603;50.878;8.036;2023-05-21T02:30:38;146081.19;;;11.91;100.00
28354;BME280;15603;50.878;8.036;2023-05-21T02:33:05;146095.78;;;11.97;100.00
28354;BME280;15603;50.878;8.036;2023-05-21T02:35:34;146026.41;;;11.68;100.00
28354;BME280;15603;50.878;8.036;2023-05-21T02:38:02;146078.72;;;11.90;100.00
28354;BME280;15603;50.878;8.036;2023-05-21T02:40:30;146095.78;;;11.97;100.00
28354;BME280;15603;50.878;8.036;2023-05-21T02:42:58;146098.19;;;11.98;100.00
28354;BME280;15603;50.878;8.036;2023-05-21T02:45:25;146133.47;;;12.13;100.00
28354;BME280;15603;50.878;8.036;2023-05-21T02:47:52;146103.06;;;12.01;100.00
28354;BME280;15603;50.878;8.036;2023-05-21T02:50:20;146083.59;;;11.92;100.00
28354;BME280;15603;50.878;8.036;2023-05-21T02:52:57;146081.19;;;11.91;100.00
28354;BME280;15603;50.878;8.036;2023-05-21T02:55:25;146089.66;;;11.95;100.00
28354;BME280;15603;50.878;8.036;2023-05-21T02:57:52;146076.28;;;11.89;100.00
28354;BME280;15603;50.878;8.036;2023-05-21T03:00:19;146059.22;;;11.82;100.00
28354;BME280;15603;50.878;8.036;2023-05-21T03:02:46;146060.44;;;11.83;100.00
28354;BME280;15603;50.878;8.036;2023-05-21T03:05:14;146049.50;;;11.78;100.00
28354;BME280;15603;50.878;8.036;2023-05-21T03:07:41;146056.78;;;11.81;100.00
28354;BME280;15603;50.878;8.036;2023-05-21T03:10:09;146023.94;;;11.67;100.00
28354;BME280;15603;50.878;8.036;2023-05-21T03:12:37;146044.66;;;11.76;100.00
28354;BME280;15603;50.878;8.036;2023-05-21T03:15:04;146037.31;;;11.73;100.00
28354;BME280;15603;50.878;8.036;2023-05-21T03:17:32;146039.75;;;11.74;100.00
28354;BME280;15603;50.878;8.036;2023-05-21T03:19:59;146038.53;;;11.73;100.00
28354;BME280;15603;50.878;8.036;2023-05-21T03:22:27;146037.31;;;11.73;100.00
28354;BME280;15603;50.878;8.036;2023-05-21T03:24:54;146060.44;;;11.83;100.00
28354;BME280;15603;50.878;8.036;2023-05-21T03:27:21;146051.91;;;11.79;100.00
28354;BME280;15603;50.878;8.036;2023-05-21T03:29:49;146065.31;;;11.85;100.00
28354;BME280;15603;50.878;8.036;2023-05-21T03:32:16;146071.38;;;11.87;100.00
28354;BME280;15603;50.878;8.036;2023-05-21T03:34:45;146059.22;;;11.82;100.00
28354;BME280;15603;50.878;8.036;2023-05-21T03:37:14;146056.78;;;11.81;100.00
28354;BME280;15603;50.878;8.036;2023-05-21T03:39:43;146054.38;;;11.80;100.00
28354;BME280;15603;50.878;8.036;2023-05-21T03:42:10;146032.47;;;11.71;100.00
28354;BME280;15603;50.878;8.036;2023-05-21T03:44:49;146057.97;;;11.82;100.00
28354;BME280;15603;50.878;8.036;2023-05-21T03:47:35;146056.78;;;11.81;100.00
28354;BME280;15603;50.878;8.036;2023-05-21T03:50:06;146054.38;;;11.80;100.00
28354;BME280;15603;50.878;8.036;2023-05-21T03:52:33;146032.47;;;11.71;100.00
28354;BME280;15603;50.878;8.036;2023-05-21T03:55:01;146044.66;;;11.76;100.00
28354;BME280;15603;50.878;8.036;2023-05-21T03:57:28;146039.75;;;11.74;100.00
28354;BME280;15603;50.878;8.036;2023-05-21T03:59:56;146054.38;;;11.80;100.00
28354;BME280;15603;50.878;8.036;2023-05-21T04:02:25;146041.00;;;11.74;100.00
28354;BME280;15603;50.878;8.036;2023-05-21T04:04:53;146073.81;;;11.88;100.00
28354;BME280;15603;50.878;8.036;2023-05-21T04:07:22;146047.06;;;11.77;100.00
28354;BME280;15603;50.878;8.036;2023-05-21T04:09:49;146081.19;;;11.91;100.00
28354;BME280;15603;50.878;8.036;2023-05-21T04:12:18;146088.47;;;11.94;100.00
28354;BME280;15603;50.878;8.036;2023-05-21T04:14:46;146083.59;;;11.92;100.00
28354;BME280;15603;50.878;8.036;2023-05-21T04:17:13;146088.47;;;11.94;100.00
28354;BME280;15603;50.878;8.036;2023-05-21T04:19:40;146086.06;;;11.93;100.00
28354;BME280;15603;50.878;8.036;2023-05-21T04:22:09;146090.91;;;11.95;100.00
28354;BME280;15603;50.878;8.036;2023-05-21T04:24:38;146098.19;;;11.98;100.00
28354;BME280;15603;50.878;8.036;2023-05-21T04:27:10;146081.19;;;11.91;100.00
28354;BME280;15603;50.878;8.036;2023-05-21T04:29:37;146099.44;;;11.99;100.00
28354;BME280;15603;50.878;8.036;2023-05-21T04:32:08;146095.78;;;11.97;100.00
28354;BME280;15603;50.878;8.036;2023-05-21T04:34:35;146061.63;;;11.83;100.00
28354;BME280;15603;50.878;8.036;2023-05-21T04:37:03;146088.47;;;11.94;100.00
28354;BME280;15603;50.878;8.036;2023-05-21T04:39:30;146140.81;;;12.16;100.00
28354;BME280;15603;50.878;8.036;2023-05-21T04:41:57;146138.34;;;12.15;100.00
28354;BME280;15603;50.878;8.036;2023-05-21T04:44:25;146156.59;;;12.23;100.00
28354;BME280;15603;50.878;8.036;2023-05-21T04:46:53;146171.19;;;12.29;100.00
28354;BME280;15603;50.878;8.036;2023-05-21T04:49:20;146169.97;;;12.29;100.00
28354;BME280;15603;50.878;8.036;2023-05-21T04:51:48;146183.38;;;12.34;100.00
28354;BME280;15603;50.878;8.036;2023-05-21T04:54:18;146213.81;;;12.47;100.00
28354;BME280;15603;50.878;8.036;2023-05-21T04:56:45;146215.03;;;12.48;100.00
28354;BME280;15603;50.878;8.036;2023-05-21T04:59:13;146229.63;;;12.54;100.00
28354;BME280;15603;50.878;8.036;2023-05-21T05:01:40;146234.47;;;12.56;100.00
28354;BME280;15603;50.878;8.036;2023-05-21T05:04:09;146250.34;;;12.63;100.00
28354;BME280;15603;50.878;8.036;2023-05-21T05:06:36;146273.44;;;12.72;100.00
28354;BME280;15603;50.878;8.036;2023-05-21T05:09:04;146289.25;;;12.79;100.00
28354;BME280;15603;50.878;8.036;2023-05-21T05:11:31;146275.84;;;12.73;100.00
28354;BME280;15603;50.878;8.036;2023-05-21T05:13:58;146283.19;;;12.76;100.00
28354;BME280;15603;50.878;8.036;2023-05-21T05:16:26;146283.19;;;12.76;100.00
28354;BME280;15603;50.878;8.036;2023-05-21T05:18:55;146322.13;;;12.93;100.00
28354;BME280;15603;50.878;8.036;2023-05-21T05:21:23;146339.16;;;13.00;100.00
28354;BME280;15603;50.878;8.036;2023-05-21T05:23:50;146278.31;;;12.74;100.00
28354;BME280;15603;50.878;8.036;2023-05-21T05:26:21;146346.50;;;13.03;100.00
28354;BME280;15603;50.878;8.036;2023-05-21T05:28:48;146358.63;;;13.08;100.00
28354;BME280;15603;50.878;8.036;2023-05-21T05:31:15;146369.63;;;13.13;100.00
28354;BME280;15603;50.878;8.036;2023-05-21T05:33:43;146378.16;;;13.16;100.00
28354;BME280;15603;50.878;8.036;2023-05-21T05:36:11;146420.81;;;13.34;100.00
28354;BME280;15603;50.878;8.036;2023-05-21T05:38:38;146390.31;;;13.22;100.00
28354;BME280;15603;50.878;8.036;2023-05-21T05:41:06;146430.53;;;13.39;100.00
28354;BME280;15603;50.878;8.036;2023-05-21T05:43:34;146429.34;;;13.38;100.00
28354;BME280;15603;50.878;8.036;2023-05-21T05:46:01;146470.75;;;13.55;100.00
28354;BME280;15603;50.878;8.036;2023-05-21T05:48:28;146482.94;;;13.61;100.00
28354;BME280;15603;50.878;8.036;2023-05-21T05:50:56;146521.88;;;13.77;100.00
28354;BME280;15603;50.878;8.036;2023-05-21T05:53:25;146580.38;;;14.02;100.00
28354;BME280;15603;50.878;8.036;2023-05-21T05:55:53;146590.09;;;14.06;100.00
28354;BME280;15603;50.878;8.036;2023-05-21T05:58:20;146604.72;;;14.12;100.00
28354;BME280;15603;50.878;8.036;2023-05-21T06:00:55;146662.00;;;14.36;100.00
28354;BME280;15603;50.878;8.036;2023-05-21T06:03:23;146660.75;;;14.36;100.00
28354;BME280;15603;50.878;8.036;2023-05-21T06:05:52;146688.81;;;14.47;100.00
28354;BME280;15603;50.878;8.036;2023-05-21T06:08:19;146692.44;;;14.49;100.00
28354;BME280;15603;50.878;8.036;2023-05-21T06:10:46;146690.03;;;14.48;100.00
28354;BME280;15603;50.878;8.036;2023-05-21T06:13:14;146766.88;;;14.80;100.00
28354;BME280;15603;50.878;8.036;2023-05-21T06:15:41;146775.41;;;14.84;100.00
28354;BME280;15603;50.878;8.036;2023-05-21T06:18:11;146785.16;;;14.88;100.00
28354;BME280;15603;50.878;8.036;2023-05-21T06:20:38;146775.41;;;14.84;100.00
28354;BME280;15603;50.878;8.036;2023-05-21T06:23:05;146804.66;;;14.96;100.00
28354;BME280;15603;50.878;8.036;2023-05-21T06:25:34;146822.94;;;15.04;100.00
28354;BME280;15603;50.878;8.036;2023-05-21T06:28:02;146836.34;;;15.09;100.00
28354;BME280;15603;50.878;8.036;2023-05-21T06:30:30;146871.72;;;15.24;100.00
28354;BME280;15603;50.878;8.036;2023-05-21T06:32:58;146785.16;;;14.88;100.00
28354;BME280;15603;50.878;8.036;2023-05-21T06:35:25;146887.53;;;15.31;100.00
28354;BME280;15603;50.878;8.036;2023-05-21T06:37:52;146876.59;;;15.26;100.00
28354;BME280;15603;50.878;8.036;2023-05-21T06:40:20;146935.09;;;15.51;100.00
28354;BME280;15603;50.878;8.036;2023-05-21T06:42:49;146972.91;;;15.67;100.00
28354;BME280;15603;50.878;8.036;2023-05-21T06:45:31;146968.06;;;15.65;100.00
28354;BME280;15603;50.878;8.036;2023-05-21T06:48:03;147014.44;;;15.84;100.00
28354;BME280;15603;50.878;8.036;2023-05-21T06:50:30;147014.44;;;15.84;100.00
28354;BME280;15603;50.878;8.036;2023-05-21T06:52:57;147016.84;;;15.85;100.00
28354;BME280;15603;50.878;8.036;2023-05-21T06:55:25;147090.03;;;16.16;100.00
28354;BME280;15603;50.878;8.036;2023-05-21T06:58:13;147082.75;;;16.13;100.00
28354;BME280;15603;50.878;8.036;2023-05-21T07:00:40;147127.91;;;16.32;100.00
28354;BME280;15603;50.878;8.036;2023-05-21T07:03:07;147087.63;;;16.15;100.00
28354;BME280;15603;50.878;8.036;2023-05-21T07:05:35;147212.06;;;16.67;100.00
28354;BME280;15603;50.878;8.036;2023-05-21T07:08:04;147152.28;;;16.42;100.00
28354;BME280;15603;50.878;8.036;2023-05-21T07:10:31;147201.13;;;16.63;100.00
28354;BME280;15603;50.878;8.036;2023-05-21T07:12:58;147284.16;;;16.98;100.00
28354;BME280;15603;50.878;8.036;2023-05-21T07:15:26;147300.00;;;17.04;98.50
28354;BME280;15603;50.878;8.036;2023-05-21T07:17:53;147292.69;;;17.01;97.79
28354;BME280;15603;50.878;8.036;2023-05-21T07:20:20;147232.81;;;16.76;96.64
28354;BME280;15603;50.878;8.036;2023-05-21T07:22:50;147335.41;;;17.19;97.69
28354;BME280;15603;50.878;8.036;2023-05-21T07:25:17;147373.25;;;17.35;96.84
28354;BME280;15603;50.878;8.036;2023-05-21T07:27:44;147378.13;;;17.37;96.29
28354;BME280;15603;50.878;8.036;2023-05-21T07:30:13;147339.06;;;17.21;96.11
28354;BME280;15603;50.878;8.036;2023-05-21T07:32:40;147408.66;;;17.50;95.71
28354;BME280;15603;50.878;8.036;2023-05-21T07:35:08;147424.50;;;17.57;96.02
28354;BME280;15603;50.878;8.036;2023-05-21T07:37:35;147456.28;;;17.70;95.67
28354;BME280;15603;50.878;8.036;2023-05-21T07:40:03;147518.63;;;17.96;94.79
28354;BME280;15603;50.878;8.036;2023-05-21T07:42:32;147532.06;;;18.02;94.42
28354;BME280;15603;50.878;8.036;2023-05-21T07:45:00;147607.75;;;18.34;93.14
28354;BME280;15603;50.878;8.036;2023-05-21T07:47:31;147578.47;;;18.21;94.52
28354;BME280;15603;50.878;8.036;2023-05-21T07:49:58;147602.88;;;18.32;92.43
28354;BME280;15603;50.878;8.036;2023-05-21T07:52:25;147705.53;;;18.75;91.06
28354;BME280;15603;50.878;8.036;2023-05-21T07:54:53;147742.25;;;18.90;90.80
28354;BME280;15603;50.878;8.036;2023-05-21T07:57:21;147754.44;;;18.95;89.12
28354;BME280;15603;50.878;8.036;2023-05-21T08:00:01;147712.84;;;18.78;89.51
28354;BME280;15603;50.878;8.036;2023-05-21T08:02:30;147763.00;;;18.99;88.83
28354;BME280;15603;50.878;8.036;2023-05-21T08:04:57;147793.56;;;19.12;89.21
28354;BME280;15603;50.878;8.036;2023-05-21T08:07:25;147772.78;;;19.03;90.82
28354;BME280;15603;50.878;8.036;2023-05-21T08:09:52;147761.78;;;18.98;89.08
28354;BME280;15603;50.878;8.036;2023-05-21T08:12:20;147792.38;;;19.11;91.36
28354;BME280;15603;50.878;8.036;2023-05-21T08:14:47;147910.91;;;19.61;88.08
28354;BME280;15603;50.878;8.036;2023-05-21T08:17:15;147965.97;;;19.84;86.63
28354;BME280;15603;50.878;8.036;2023-05-21T08:19:43;148018.56;;;20.06;85.22
28354;BME280;15603;50.878;8.036;2023-05-21T08:22:10;148018.56;;;20.06;84.86
28354;BME280;15603;50.878;8.036;2023-05-21T08:24:40;147930.50;;;19.69;88.05
28354;BME280;15603;50.878;8.036;2023-05-21T08:27:08;148074.81;;;20.30;84.16
28354;BME280;15603;50.878;8.036;2023-05-21T08:29:36;148115.19;;;20.47;82.72
28354;BME280;15603;50.878;8.036;2023-05-21T08:32:05;148139.66;;;20.57;83.83
28354;BME280;15603;50.878;8.036;2023-05-21T08:34:32;148167.81;;;20.69;82.79
28354;BME280;15603;50.878;8.036;2023-05-21T08:37:15;148231.44;;;20.95;81.04
28354;BME280;15603;50.878;8.036;2023-05-21T08:39:57;148268.16;;;21.11;79.42
28354;BME280;15603;50.878;8.036;2023-05-21T08:42:35;148241.22;;;20.99;78.25
28354;BME280;15603;50.878;8.036;2023-05-21T08:45:05;148277.94;;;21.15;79.64
28354;BME280;15603;50.878;8.036;2023-05-21T08:47:34;148363.69;;;21.51;78.79
28354;BME280;15603;50.878;8.036;2023-05-21T08:50:08;148322.03;;;21.33;77.21
28354;BME280;15603;50.878;8.036;2023-05-21T08:52:36;148346.53;;;21.44;74.94
28354;BME280;15603;50.878;8.036;2023-05-21T08:55:04;148417.53;;;21.73;78.58
28354;BME280;15603;50.878;8.036;2023-05-21T08:57:33;148438.34;;;21.82;77.59
28354;BME280;15603;50.878;8.036;2023-05-21T09:00:01;148517.94;;;22.15;76.70
28354;BME280;15603;50.878;8.036;2023-05-21T09:02:33;148584.09;;;22.43;74.34
28354;BME280;15603;50.878;8.036;2023-05-21T09:05:02;148555.94;;;22.31;72.13
28354;BME280;15603;50.878;8.036;2023-05-21T09:07:34;148520.38;;;22.16;73.52
28354;BME280;15603;50.878;8.036;2023-05-21T09:10:41;148642.91;;;22.68;74.22
28354;BME280;15603;50.878;8.036;2023-05-21T09:13:13;148596.38;;;22.48;71.11
28354;BME280;15603;50.878;8.036;2023-05-21T09:15:40;148631.84;;;22.63;70.89
28354;BME280;15603;50.878;8.036;2023-05-21T09:18:08;148673.53;;;22.81;74.99
28354;BME280;15603;50.878;8.036;2023-05-21T09:21:25;148761.78;;;23.18;71.28
28354;BME280;15603;50.878;8.036;2023-05-21T09:23:56;148716.41;;;22.99;68.81
28354;BME280;15603;50.878;8.036;2023-05-21T09:26:24;148671.06;;;22.80;70.10
28354;BME280;15603;50.878;8.036;2023-05-21T09:28:57;148630.63;;;22.63;71.70
28354;BME280;15603;50.878;8.036;2023-05-21T09:31:25;148586.56;;;22.44;70.59
28354;BME280;15603;50.878;8.036;2023-05-21T09:33:53;148631.84;;;22.63;73.01
28354;BME280;15603;50.878;8.036;2023-05-21T09:36:23;148652.69;;;22.72;71.53
28354;BME280;15603;50.878;8.036;2023-05-21T09:38:50;148679.66;;;22.83;72.68
28354;BME280;15603;50.878;8.036;2023-05-21T09:41:18;148758.09;;;23.16;69.00
28354;BME280;15603;50.878;8.036;2023-05-21T09:43:48;148739.72;;;23.08;68.14
28354;BME280;15603;50.878;8.036;2023-05-21T09:46:19;148674.75;;;22.81;68.17
28354;BME280;15603;50.878;8.036;2023-05-21T09:48:46;148728.72;;;23.04;67.19
28354;BME280;15603;50.878;8.036;2023-05-21T09:51:18;148780.16;;;23.25;66.43
28354;BME280;15603;50.878;8.036;2023-05-21T09:53:52;148829.13;;;23.46;64.53
28354;BME280;15603;50.878;8.036;2023-05-21T09:56:22;148837.72;;;23.49;65.53
28354;BME280;15603;50.878;8.036;2023-05-21T09:58:51;148910.09;;;23.80;64.48
28354;BME280;15603;50.878;8.036;2023-05-21T10:01:20;148819.34;;;23.42;64.69
28354;BME280;15603;50.878;8.036;2023-05-21T10:03:53;148885.53;;;23.69;64.12
28354;BME280;15603;50.878;8.036;2023-05-21T10:06:26;148853.69;;;23.56;62.00
28354;BME280;15603;50.878;8.036;2023-05-21T10:08:55;148956.66;;;23.99;60.66
28354;BME280;15603;50.878;8.036;2023-05-21T10:11:25;149013.03;;;24.23;60.31
28354;BME280;15603;50.878;8.036;2023-05-21T10:13:57;149074.34;;;24.48;58.72
28354;BME280;15603;50.878;8.036;2023-05-21T10:16:27;149113.63;;;24.65;58.37
28354;BME280;15603;50.878;8.036;2023-05-21T10:18:55;149203.16;;;25.02;58.09
28354;BME280;15603;50.878;8.036;2023-05-21T10:21:25;149181.06;;;24.93;56.40
28354;BME280;15603;50.878;8.036;2023-05-21T10:23:52;149089.09;;;24.55;54.40
28354;BME280;15603;50.878;8.036;2023-05-21T10:26:23;149123.41;;;24.69;55.39
28354;BME280;15603;50.878;8.036;2023-05-21T10:28:50;149035.09;;;24.32;51.98
28354;BME280;15603;50.878;8.036;2023-05-21T10:31:18;149114.88;;;24.65;52.26
28354;BME280;15603;50.878;8.036;2023-05-21T10:33:46;149150.41;;;24.80;51.84
28354;BME280;15603;50.878;8.036;2023-05-21T10:36:17;149242.38;;;25.19;52.13
28354;BME280;15603;50.878;8.036;2023-05-21T10:38:45;149198.25;;;25.00;51.88
28354;BME280;15603;50.878;8.036;2023-05-21T10:41:14;149233.78;;;25.15;52.20
28354;BME280;15603;50.878;8.036;2023-05-21T10:52:34;149263.31;;;25.27;47.43
28354;BME280;15603;50.878;8.036;2023-05-21T10:55:18;149316.03;;;25.50;50.14
28354;BME280;15603;50.878;8.036;2023-05-21T11:00:38;149351.63;;;25.64;50.10
28354;BME280;15603;50.878;8.036;2023-05-21T11:03:06;149378.63;;;25.76;49.27
28354;BME280;15603;50.878;8.036;2023-05-21T11:05:51;149346.72;;;25.62;48.88
28354;BME280;15603;50.878;8.036;2023-05-21T11:08:24;149305.00;;;25.45;48.78
28354;BME280;15603;50.878;8.036;2023-05-21T11:10:55;149355.31;;;25.66;48.86
28354;BME280;15603;50.878;8.036;2023-05-21T11:13:25;149352.81;;;25.65;47.04
28354;BME280;15603;50.878;8.036;2023-05-21T11:21:04;149349.13;;;25.63;46.29
28354;BME280;15603;50.878;8.036;2023-05-21T11:24:08;149354.09;;;25.65;46.72
28354;BME280;15603;50.878;8.036;2023-05-21T11:29:13;149290.28;;;25.39;44.95
28354;BME280;15603;50.878;8.036;2023-05-21T11:31:45;149324.63;;;25.53;45.64
28354;BME280;15603;50.878;8.036;2023-05-21T11:34:20;149370.00;;;25.72;45.43
28354;BME280;15603;50.878;8.036;2023-05-21T11:39:44;149328.31;;;25.55;46.98
28354;BME280;15603;50.878;8.036;2023-05-21T11:42:11;149404.34;;;25.86;46.32
28354;BME280;15603;50.878;8.036;2023-05-21T11:44:43;149319.72;;;25.51;44.81
28354;BME280;15603;50.878;8.036;2023-05-21T11:47:14;149282.91;;;25.36;45.38
28354;BME280;15603;50.878;8.036;2023-05-21T11:49:42;149317.28;;;25.50;44.65
28354;BME280;15603;50.878;8.036;2023-05-21T11:52:10;149282.91;;;25.36;43.50
28354;BME280;15603;50.878;8.036;2023-05-21T11:54:42;149486.63;;;26.21;44.45
28354;BME280;15603;50.878;8.036;2023-05-21T11:57:12;149518.53;;;26.34;44.50
28354;BME280;15603;50.878;8.036;2023-05-21T11:59:45;149400.69;;;25.85;40.45
28354;BME280;15603;50.878;8.036;2023-05-21T12:02:14;149501.38;;;26.27;43.03
28354;BME280;15603;50.878;8.036;2023-05-21T12:04:45;149424.06;;;25.95;41.91
28354;BME280;15603;50.878;8.036;2023-05-21T12:07:15;149459.59;;;26.10;44.04
28354;BME280;15603;50.878;8.036;2023-05-21T12:09:47;149554.13;;;26.49;42.25
28354;BME280;15603;50.878;8.036;2023-05-21T12:12:17;149435.09;;;25.99;41.70
28354;BME280;15603;50.878;8.036;2023-05-21T12:14:54;149468.22;;;26.13;40.64
28354;BME280;15603;50.878;8.036;2023-05-21T12:17:22;149535.72;;;26.41;42.06
28354;BME280;15603;50.878;8.036;2023-05-21T12:19:51;149449.81;;;26.05;41.54
28354;BME280;15603;50.878;8.036;2023-05-21T12:22:20;149474.38;;;26.16;41.56
28354;BME280;15603;50.878;8.036;2023-05-21T12:24:47;149444.91;;;26.03;42.14
28354;BME280;15603;50.878;8.036;2023-05-21T12:27:15;149494.00;;;26.24;42.31
28354;BME280;15603;50.878;8.036;2023-05-21T12:29:43;149478.03;;;26.17;39.90
28354;BME280;15603;50.878;8.036;2023-05-21T12:32:13;149534.50;;;26.41;42.56
28354;BME280;15603;50.878;8.036;2023-05-21T12:34:45;149498.91;;;26.26;41.89
28354;BME280;15603;50.878;8.036;2023-05-21T12:37:19;149514.84;;;26.33;40.69
28354;BME280;15603;50.878;8.036;2023-05-21T12:39:48;149511.19;;;26.31;41.03
28354;BME280;15603;50.878;8.036;2023-05-21T12:42:15;149442.47;;;26.02;40.75
28354;BME280;15603;50.878;8.036;2023-05-21T12:44:45;149427.75;;;25.96;40.36
28354;BME280;15603;50.878;8.036;2023-05-21T12:47:12;149388.41;;;25.80;39.79
28354;BME280;15603;50.878;8.036;2023-05-21T12:49:41;149376.13;;;25.75;42.44
28354;BME280;15603;50.878;8.036;2023-05-21T12:52:12;149367.53;;;25.71;42.09
28354;BME280;15603;50.878;8.036;2023-05-21T12:54:41;149347.91;;;25.63;41.52
28354;BME280;15603;50.878;8.036;2023-05-21T12:57:14;149339.34;;;25.59;42.04
28354;BME280;15603;50.878;8.036;2023-05-21T12:59:50;149319.72;;;25.51;41.78
28354;BME280;15603;50.878;8.036;2023-05-21T13:02:26;149344.22;;;25.61;39.59
28354;BME280;15603;50.878;8.036;2023-05-21T13:05:14;149433.88;;;25.99;40.36
28354;BME280;15603;50.878;8.036;2023-05-21T13:07:45;149383.50;;;25.78;40.53
28354;BME280;15603;50.878;8.036;2023-05-21T13:10:14;149451.06;;;26.06;39.14
28354;BME280;15603;50.878;8.036;2023-05-21T13:12:43;149449.81;;;26.05;41.98
28354;BME280;15603;50.878;8.036;2023-05-21T13:15:10;149525.91;;;26.37;40.37
28354;BME280;15603;50.878;8.036;2023-05-21T13:17:37;149541.84;;;26.44;39.37
28354;BME280;15603;50.878;8.036;2023-05-21T13:22:40;149668.34;;;26.97;39.18